Time;durP1;ratioP1;P1;durP2;ratioP2;P2;SDS_P1;SDS_P2;PMS_P1;PMS_P2;Temp;Humidity;BMP_temperature;BMP_pressure;BME280_temperature;BME280_humidity;BME280_pressure;Samples;Min_cycle;Max_cycle;Signal;HPM_P1;HPM_P2
2023/06/21 00:00:33;;;;;;;25.60;15.60;;;;;;;20.19;100.00;100575.03;5073751;28;20495;-69
2023/06/21 00:09:43;;;;;;;24.53;14.20;;;;;;;20.10;100.00;100585.47;5073410;28;20517;-70
2023/06/21 00:12:11;;;;;;;24.63;14.57;;;;;;;20.10;100.00;100588.22;5073164;28;20481;-70
2023/06/21 00:14:37;;;;;;;23.80;14.93;;;;;;;20.08;100.00;100574.81;5073528;28;20499;-70
2023/06/21 00:17:04;;;;;;;21.33;13.43;;;;;;;20.09;100.00;100587.41;5073509;28;20463;-70
2023/06/21 00:19:31;;;;;;;22.10;13.83;;;;;;;20.08;100.00;100588.56;5074536;28;20477;-70
2023/06/21 00:21:59;;;;;;;26.70;14.63;;;;;;;20.10;100.00;100596.47;5073132;28;20432;-70
2023/06/21 00:24:26;;;;;;;24.17;13.43;;;;;;;20.08;100.00;100594.06;5073328;28;20442;-70
2023/06/21 00:26:53;;;;;;;23.87;13.40;;;;;;;20.04;100.00;100595.94;5073336;28;20472;-70
2023/06/21 00:29:21;;;;;;;24.13;13.50;;;;;;;20.04;100.00;100606.94;5072454;28;20471;-70
2023/06/21 00:31:47;;;;;;;24.20;13.40;;;;;;;20.00;100.00;100605.28;5073191;28;20481;-70
2023/06/21 00:34:14;;;;;;;19.37;12.43;;;;;;;20.00;100.00;100597.03;5072865;28;20884;-70
2023/06/21 00:36:41;;;;;;;23.10;13.57;;;;;;;20.01;100.00;100593.13;5073139;28;20528;-69
2023/06/21 00:39:10;;;;;;;23.60;13.67;;;;;;;20.00;100.00;100597.03;5072816;28;20885;-69
2023/06/21 00:41:37;;;;;;;22.00;14.07;;;;;;;20.02;100.00;100601.03;5072861;28;20540;-70
2023/06/21 00:44:04;;;;;;;24.10;13.87;;;;;;;20.00;100.00;100597.03;5073144;28;20441;-70
2023/06/21 00:46:34;;;;;;;23.03;14.37;;;;;;;19.97;100.00;100593.09;5073088;28;20448;-70
2023/06/21 00:49:00;;;;;;;23.13;13.27;;;;;;;19.94;100.00;100584.75;5072749;28;21003;-70
2023/06/21 00:51:27;;;;;;;21.93;12.67;;;;;;;19.95;100.00;100580.84;5073030;28;20524;-70
2023/06/21 00:53:56;;;;;;;22.37;12.90;;;;;;;19.94;100.00;100571.03;5073035;28;20436;-69
2023/06/21 00:56:22;;;;;;;21.33;13.70;;;;;;;19.95;100.00;100569.84;5073189;28;20448;-69
2023/06/21 00:58:49;;;;;;;22.70;14.30;;;;;;;19.91;100.00;100559.56;5073205;28;20461;-69
2023/06/21 01:01:16;;;;;;;26.00;14.20;;;;;;;19.92;100.00;100554.88;5072937;28;20494;-69
2023/06/21 01:03:44;;;;;;;22.80;13.07;;;;;;;19.94;100.00;100560.03;5072882;28;20445;-69
2023/06/21 01:06:28;;;;;;;23.77;13.90;;;;;;;19.94;100.00;100568.28;5072910;28;20437;-69
2023/06/21 01:09:07;;;;;;;23.37;13.40;;;;;;;19.93;100.00;100572.19;5072902;28;20465;-69
2023/06/21 01:11:43;;;;;;;23.87;14.30;;;;;;;19.95;100.00;100575.34;5072879;28;20432;-70
2023/06/21 01:14:25;;;;;;;23.87;15.60;;;;;;;19.93;100.00;100581.22;5072910;28;20483;-69
2023/06/21 01:16:55;;;;;;;24.67;14.23;;;;;;;19.91;100.00;100584.31;5072891;28;20508;-70
2023/06/21 01:19:33;;;;;;;25.07;14.80;;;;;;;19.92;100.00;100582.38;5072393;28;20457;-70
2023/06/21 01:22:01;;;;;;;21.90;14.43;;;;;;;19.91;100.00;100576.06;5072789;28;20426;-70
2023/06/21 01:24:42;;;;;;;26.73;14.73;;;;;;;19.90;100.00;100558.00;5072747;28;20449;-69
2023/06/21 01:27:27;;;;;;;24.50;14.03;;;;;;;19.93;100.00;100550.97;5072808;28;20448;-70
2023/06/21 01:29:58;;;;;;;20.97;12.87;;;;;;;19.92;100.00;100554.88;5072376;28;20976;-70
2023/06/21 01:32:28;;;;;;;28.33;15.57;;;;;;;19.93;100.00;100556.47;5072595;28;20568;-70
2023/06/21 01:34:56;;;;;;;27.53;14.63;;;;;;;19.93;100.00;100550.97;5072348;28;20445;-69
2023/06/21 01:37:23;;;;;;;23.23;14.53;;;;;;;19.95;100.00;100547.84;5072268;28;20847;-70
2023/06/21 01:39:50;;;;;;;22.20;13.13;;;;;;;19.97;100.00;100551.84;5073707;28;20511;-70
2023/06/21 01:42:18;;;;;;;23.83;14.10;;;;;;;19.99;100.00;100551.47;5076377;28;20433;-70
2023/06/21 01:44:45;;;;;;;22.97;14.47;;;;;;;20.01;100.00;100563.72;5076336;28;20453;-69
2023/06/21 01:47:14;;;;;;;26.57;15.30;;;;;;;20.03;100.00;100566.06;5076247;28;20447;-69
2023/06/21 01:49:42;;;;;;;26.93;13.93;;;;;;;20.04;100.00;100565.69;5076101;28;20461;-69
2023/06/21 01:52:09;;;;;;;24.50;14.27;;;;;;;20.06;100.00;100576.34;5076118;28;20483;-70
2023/06/21 01:54:39;;;;;;;24.93;14.03;;;;;;;20.08;100.00;100580.31;5076146;28;20524;-69
2023/06/21 01:57:08;;;;;;;26.63;15.60;;;;;;;20.10;100.00;100577.22;5076130;28;20440;-69
2023/06/21 01:59:36;;;;;;;22.10;13.27;;;;;;;20.11;100.00;100578.81;5076035;28;20848;-69
2023/06/21 02:02:05;;;;;;;22.23;14.10;;;;;;;20.10;100.00;100579.97;5075746;28;20532;-69
2023/06/21 02:04:35;;;;;;;24.93;15.17;;;;;;;20.10;100.00;100575.25;5076034;28;20445;-69
2023/06/21 02:07:03;;;;;;;28.70;15.13;;;;;;;20.10;100.00;100582.72;5075922;28;20460;-69
2023/06/21 02:09:31;;;;;;;20.50;12.50;;;;;;;20.12;100.00;100569.38;5075832;28;20497;-69
2023/06/21 02:12:00;;;;;;;26.23;13.73;;;;;;;20.11;100.00;100578.81;5075795;28;20845;-69
2023/06/21 02:14:26;;;;;;;20.30;11.50;;;;;;;20.12;100.00;100583.94;5075849;28;20865;-69
2023/06/21 02:16:52;;;;;;;24.20;14.47;;;;;;;20.12;100.00;100596.88;5075477;28;21013;-69
2023/06/21 02:19:19;;;;;;;23.40;14.63;;;;;;;20.11;100.00;100600.81;5075706;28;20464;-69
2023/06/21 02:21:47;;;;;;;25.20;14.70;;;;;;;20.10;100.00;100619.25;5075313;28;20460;-69
2023/06/21 02:24:14;;;;;;;20.43;13.07;;;;;;;20.10;100.00;100643.22;5075405;28;20948;-70
2023/06/21 02:26:40;;;;;;;27.67;15.77;;;;;;;20.13;100.00;100664.47;5075593;28;20532;-69
2023/06/21 02:29:07;;;;;;;32.23;18.87;;;;;;;20.16;100.00;100688.50;5075234;28;21048;-69
2023/06/21 02:31:34;;;;;;;33.57;18.20;;;;;;;20.17;100.00;100690.09;5075553;28;20469;-70
2023/06/21 02:34:00;;;;;;;31.00;18.33;;;;;;;20.18;100.00;100699.94;5075262;28;20487;-69
2023/06/21 02:36:27;;;;;;;33.37;17.37;;;;;;;20.19;100.00;100696.06;5075130;28;21023;-70
2023/06/21 02:38:55;;;;;;;28.70;15.53;;;;;;;20.22;100.00;100697.25;5075574;28;20457;-70
2023/06/21 02:41:22;;;;;;;32.77;20.03;;;;;;;20.24;100.00;100690.25;5075528;28;20915;-71
2023/06/21 02:43:49;;;;;;;30.40;17.60;;;;;;;20.27;100.00;100697.75;5074973;28;21035;-70
2023/06/21 02:46:16;;;;;;;31.47;19.67;;;;;;;20.30;100.00;100688.78;5075267;28;20520;-71
2023/06/21 02:48:42;;;;;;;33.77;18.50;;;;;;;20.38;100.00;100665.75;5074765;28;20455;-71
2023/06/21 02:51:09;;;;;;;32.53;19.40;;;;;;;20.47;100.00;100662.75;5074807;28;20819;-70
2023/06/21 02:53:35;;;;;;;30.80;17.90;;;;;;;20.49;100.00;100659.66;5075295;28;20574;-71
2023/06/21 02:56:03;;;;;;;27.33;17.70;;;;;;;20.52;100.00;100656.19;5075106;28;20532;-71
2023/06/21 02:58:30;;;;;;;27.97;16.40;;;;;;;20.48;100.00;100639.59;5074662;28;20544;-72
2023/06/21 03:00:57;;;;;;;31.90;17.67;;;;;;;20.46;100.00;100622.66;5075097;28;20442;-71
2023/06/21 03:03:24;;;;;;;25.03;14.33;;;;;;;20.49;100.00;100605.41;5074896;28;20782;-71
2023/06/21 03:05:51;;;;;;;28.77;16.20;;;;;;;20.51;100.00;100608.59;5074595;28;20944;-71
2023/06/21 03:08:17;;;;;;;29.07;17.53;;;;;;;20.51;100.00;100602.31;5074443;28;20975;-70
2023/06/21 03:10:44;;;;;;;27.33;18.00;;;;;;;20.51;100.00;100603.09;5074763;28;20524;-70
2023/06/21 03:13:12;;;;;;;27.77;15.27;;;;;;;20.55;100.00;100603.97;5074355;28;20576;-70
2023/06/21 03:15:38;;;;;;;26.70;14.47;;;;;;;20.57;100.00;100592.56;5074608;28;20490;-70
2023/06/21 03:18:05;;;;;;;25.93;15.53;;;;;;;20.58;100.00;100583.13;5074654;28;20476;-70
2023/06/21 03:20:32;;;;;;;29.87;17.20;;;;;;;20.59;100.00;100579.25;5074343;28;20470;-71
2023/06/21 03:22:58;;;;;;;26.87;14.67;;;;;;;20.59;100.00;100584.75;5074522;28;20443;-70
2023/06/21 03:25:26;;;;;;;26.23;15.60;;;;;;;20.57;100.00;100584.31;5074243;28;20437;-70
2023/06/21 03:27:53;;;;;;;26.80;15.90;;;;;;;20.56;100.00;100582.72;5074635;28;20540;-70
2023/06/21 03:30:21;;;;;;;27.83;14.70;;;;;;;20.58;100.00;100585.91;5074253;28;20523;-70
2023/06/21 03:32:48;;;;;;;30.03;15.30;;;;;;;20.59;100.00;100587.50;5073866;28;21033;-70
2023/06/21 03:35:15;;;;;;;27.17;14.90;;;;;;;20.59;100.00;100587.50;5074201;28;20451;-70
2023/06/21 03:37:42;;;;;;;28.80;15.60;;;;;;;20.58;100.00;100594.16;5074375;28;20441;-70
2023/06/21 03:40:11;;;;;;;24.43;15.50;;;;;;;20.56;100.00;100610.25;5073789;28;20473;-71
2023/06/21 03:42:38;;;;;;;23.07;14.20;;;;;;;20.55;100.00;100612.22;5073733;28;20490;-70
2023/06/21 03:45:07;;;;;;;25.80;14.80;;;;;;;20.57;100.00;100614.59;5074054;28;20544;-71
2023/06/21 03:47:35;;;;;;;30.40;15.20;;;;;;;20.57;100.00;100620.88;5073138;28;20503;-71
2023/06/21 03:50:03;;;;;;;26.17;15.60;;;;;;;20.57;100.00;100633.84;5073876;28;20568;-71
2023/06/21 03:52:29;;;;;;;24.90;16.70;;;;;;;20.61;100.00;100640.22;5073867;28;20449;-71
2023/06/21 03:54:56;;;;;;;29.40;16.23;;;;;;;20.58;100.00;100640.94;5073618;28;20485;-71
2023/06/21 03:57:22;;;;;;;26.10;16.10;;;;;;;20.56;100.00;100646.81;5073521;28;20441;-71
2023/06/21 03:59:49;;;;;;;25.37;16.20;;;;;;;20.59;100.00;100648.84;5073683;28;20497;-70
2023/06/21 04:02:16;;;;;;;27.70;16.50;;;;;;;20.57;100.00;100645.66;5073218;28;21005;-70
2023/06/21 04:04:44;;;;;;;24.23;14.47;;;;;;;20.60;100.00;100649.63;5072947;28;20437;-70
2023/06/21 04:07:10;;;;;;;30.13;16.87;;;;;;;20.61;100.00;100662.25;5073675;28;20540;-71
2023/06/21 04:09:37;;;;;;;28.10;17.00;;;;;;;20.59;100.00;100679.13;5073514;28;20460;-71
2023/06/21 04:12:04;;;;;;;34.97;20.57;;;;;;;20.61;100.00;100685.03;5073566;28;20441;-70
2023/06/21 04:14:31;;;;;;;32.73;17.57;;;;;;;20.68;100.00;100692.66;5073462;28;20611;-70
2023/06/21 04:16:58;;;;;;;32.30;18.77;;;;;;;20.70;100.00;100695.03;5073482;28;20448;-70
2023/06/21 04:19:24;;;;;;;29.10;17.70;;;;;;;20.76;100.00;100707.31;5073266;28;20886;-71
2023/06/21 04:21:52;;;;;;;27.50;16.10;;;;;;;20.78;100.00;100721.53;5073336;28;20535;-70
2023/06/21 04:24:19;;;;;;;30.93;20.20;;;;;;;20.88;100.00;100732.72;5073064;28;20491;-70
2023/06/21 04:26:45;;;;;;;28.50;17.20;;;;;;;20.92;100.00;100743.78;5073331;28;20444;-71
2023/06/21 04:29:12;;;;;;;32.20;19.00;;;;;;;20.95;100.00;100742.28;5073299;28;20461;-71
2023/06/21 04:31:38;;;;;;;29.33;20.03;;;;;;;20.94;100.00;100748.91;5072988;28;20959;-70
2023/06/21 04:34:05;;;;;;;36.00;18.57;;;;;;;20.96;100.00;100754.88;5073199;28;20675;-70
2023/06/21 04:36:32;;;;;;;27.30;18.80;;;;;;;21.00;100.00;100752.97;5073244;28;20820;-70
2023/06/21 04:39:00;;;;;;;30.10;17.97;;;;;;;21.06;100.00;100762.50;5073028;28;20553;-70
2023/06/21 04:41:26;;;;;;;31.83;17.83;;;;;;;21.06;100.00;100765.25;5073188;28;20495;-70
2023/06/21 04:43:53;;;;;;;34.90;20.20;;;;;;;21.10;100.00;100768.88;5073182;28;20476;-70
2023/06/21 04:46:21;;;;;;;38.13;22.57;;;;;;;21.06;100.00;100771.56;5073092;28;20448;-71
2023/06/21 04:48:48;;;;;;;28.80;17.80;;;;;;;21.12;100.00;100766.56;5072918;28;20470;-70
2023/06/21 04:51:15;;;;;;;28.97;18.60;;;;;;;21.12;100.00;100767.38;5073312;28;20443;-69
2023/06/21 04:53:42;;;;;;;33.47;20.73;;;;;;;21.13;100.00;100765.41;5073274;28;20519;-70
2023/06/21 04:56:12;;;;;;;33.10;20.20;;;;;;;21.16;100.00;100762.72;5073037;28;20541;-70
2023/06/21 04:58:39;;;;;;;32.47;21.10;;;;;;;21.11;100.00;100757.47;5072642;28;20881;-70
2023/06/21 05:01:06;;;;;;;31.10;18.00;;;;;;;21.13;100.00;100752.41;5073057;28;20441;-70
2023/06/21 05:03:33;;;;;;;28.50;18.07;;;;;;;21.16;100.00;100753.63;5072676;28;21012;-70
2023/06/21 05:06:00;;;;;;;38.07;19.40;;;;;;;21.15;100.00;100761.09;5073018;28;20503;-71
2023/06/21 05:08:26;;;;;;;30.33;18.60;;;;;;;21.20;100.00;100767.47;5072577;28;20971;-71
2023/06/21 05:10:53;;;;;;;27.30;17.33;;;;;;;21.22;100.00;100767.91;5072872;28;20452;-71
2023/06/21 05:13:21;;;;;;;33.20;21.23;;;;;;;21.25;100.00;100761.63;5072510;28;20567;-70
2023/06/21 05:15:47;;;;;;;27.73;17.63;;;;;;;21.23;100.00;100762.00;5075826;28;20978;-71
2023/06/21 05:18:14;;;;;;;27.83;17.97;;;;;;;21.25;100.00;100770.72;5076545;28;20445;-70
2023/06/21 05:20:41;;;;;;;29.33;17.60;;;;;;;21.28;100.00;100777.44;5076519;28;20492;-70
2023/06/21 05:23:07;;;;;;;35.87;19.53;;;;;;;21.30;100.00;100775.91;5076906;28;20437;-70
2023/06/21 05:25:34;;;;;;;30.87;19.90;;;;;;;21.32;100.00;100779.13;5076467;28;20971;-70
2023/06/21 05:28:00;;;;;;;28.33;16.63;;;;;;;21.36;100.00;100781.94;5076804;28;20536;-70
2023/06/21 05:30:28;;;;;;;32.00;20.37;;;;;;;21.38;100.00;100790.63;5076728;28;20838;-70
2023/06/21 05:32:55;;;;;;;36.40;20.30;;;;;;;21.42;100.00;100784.00;5076668;28;20473;-70
2023/06/21 05:35:22;;;;;;;30.87;20.40;;;;;;;21.47;100.00;100793.13;5076758;28;20475;-70
2023/06/21 05:37:48;;;;;;;33.57;18.10;;;;;;;21.49;100.00;100799.06;5076765;28;20477;-70
2023/06/21 05:40:15;;;;;;;29.27;18.30;;;;;;;21.57;100.00;100800.78;5076400;28;20471;-70
2023/06/21 05:42:42;;;;;;;33.47;18.57;;;;;;;21.62;100.00;100803.22;5076583;28;20437;-70
2023/06/21 05:45:09;;;;;;;28.03;17.97;;;;;;;21.75;100.00;100807.34;5076347;28;20544;-71
2023/06/21 05:47:37;;;;;;;34.83;20.53;;;;;;;21.85;100.00;100814.97;5076191;28;20441;-70
2023/06/21 05:50:05;;;;;;;29.87;19.07;;;;;;;21.88;100.00;100828.03;5076431;28;20504;-69
2023/06/21 05:52:31;;;;;;;32.53;19.30;;;;;;;21.89;100.00;100824.09;5076414;28;20444;-69
2023/06/21 05:54:58;;;;;;;34.43;19.33;;;;;;;21.92;100.00;100834.41;5076071;28;20546;-69
2023/06/21 05:57:26;;;;;;;32.80;19.60;;;;;;;21.95;100.00;100821.81;5076305;28;20884;-69
2023/06/21 05:59:53;;;;;;;36.67;20.63;;;;;;;21.97;100.00;100813.97;5076213;28;20473;-69
2023/06/21 06:02:20;;;;;;;32.10;19.17;;;;;;;22.01;100.00;100825.06;5076411;28;20763;-73
2023/06/21 06:04:48;;;;;;;28.83;16.23;;;;;;;22.00;100.00;100813.22;5076208;28;20525;-72
2023/06/21 06:07:14;;;;;;;32.03;19.03;;;;;;;22.06;100.00;100806.22;5076111;28;20495;-71
2023/06/21 06:09:41;;;;;;;27.27;16.80;;;;;;;22.12;100.00;100809.47;5076260;28;20507;-73
2023/06/21 06:12:08;;;;;;;33.07;18.40;;;;;;;22.15;100.00;100801.22;5075906;28;20528;-73
2023/06/21 06:14:35;;;;;;;30.13;18.53;;;;;;;22.10;100.00;100803.50;5075940;28;20512;-72
2023/06/21 06:17:02;;;;;;;36.53;20.90;;;;;;;22.06;100.00;100799.91;5076005;28;20469;-71
2023/06/21 06:19:28;;;;;;;34.63;18.80;;;;;;;22.12;100.00;100812.22;5076055;28;20472;-72
2023/06/21 06:21:56;;;;;;;27.97;17.20;;;;;;;22.14;100.00;100815.41;5075530;28;20884;-72
2023/06/21 06:24:23;;;;;;;29.63;16.37;;;;;;;22.19;100.00;100819.81;5075863;28;20439;-73
2023/06/21 06:26:49;;;;;;;28.87;15.10;;;;;;;22.25;100.00;100819.09;5074626;28;20818;-72
2023/06/21 06:29:16;;;;;;;27.47;17.10;;;;;;;22.27;100.00;100821.47;5075666;28;20497;-70
2023/06/21 06:31:43;;;;;;;25.33;15.00;;;;;;;22.26;100.00;100831.72;5075502;28;20519;-70
2023/06/21 06:34:09;;;;;;;25.10;15.03;;;;;;;22.28;100.00;100832.16;5075167;28;21014;-70
2023/06/21 06:36:36;;;;;;;24.10;14.60;;;;;;;22.20;100.00;100832.44;5075454;28;20449;-70
2023/06/21 06:39:06;;;;;;;27.67;14.80;;;;;;;22.25;100.00;100832.91;5074992;28;20488;-70
2023/06/21 06:41:32;;;;;;;25.97;14.20;;;;;;;22.20;100.00;100833.22;5075097;28;20819;-73
2023/06/21 06:43:59;;;;;;;23.13;14.67;;;;;;;22.34;100.00;100841.69;5074971;28;21039;-72
2023/06/21 06:46:26;;;;;;;32.87;14.63;;;;;;;22.38;100.00;100839.78;5075314;28;20469;-69
2023/06/21 06:48:52;;;;;;;23.83;14.67;;;;;;;22.41;100.00;100841.00;5075145;28;20485;-72
2023/06/21 06:51:19;;;;;;;21.93;13.50;;;;;;;22.48;100.00;100843.81;5074879;28;20536;-73
2023/06/21 06:53:47;;;;;;;27.23;13.17;;;;;;;22.61;100.00;100847.13;5074994;28;20521;-72
2023/06/21 06:56:15;;;;;;;20.83;12.27;;;;;;;22.75;100.00;100846.50;5075118;28;20455;-72
2023/06/21 06:58:42;;;;;;;22.17;12.90;;;;;;;22.89;100.00;100854.97;5074971;28;20465;-71
2023/06/21 07:01:09;;;;;;;20.73;12.10;;;;;;;22.99;100.00;100859.84;5075011;28;20456;-71
2023/06/21 07:03:35;;;;;;;19.77;11.47;;;;;;;22.94;100.00;100854.66;5075007;28;20438;-71
2023/06/21 07:06:02;;;;;;;16.80;10.83;;;;;;;23.10;100.00;100851.63;5075112;28;20449;-71
2023/06/21 07:08:29;;;;;;;19.00;10.40;;;;;;;23.18;100.00;100858.84;5074796;28;20469;-71
2023/06/21 07:10:55;;;;;;;19.20;10.43;;;;;;;23.31;100.00;100857.38;5074855;28;20437;-71
2023/06/21 07:13:23;;;;;;;28.00;10.60;;;;;;;23.39;100.00;100861.00;5074378;28;21015;-72
2023/06/21 07:15:50;;;;;;;21.90;11.03;;;;;;;23.34;100.00;100866.91;5074762;28;20488;-71
2023/06/21 07:18:17;;;;;;;16.27;9.93;;;;;;;23.35;100.00;100869.25;5074308;28;20446;-71
2023/06/21 07:20:43;;;;;;;15.47;9.10;;;;;;;23.35;100.00;100877.56;5074383;28;20540;-72
2023/06/21 07:23:11;;;;;;;24.10;9.80;;;;;;;23.38;100.00;100879.56;5074612;28;20870;-71
2023/06/21 07:25:37;;;;;;;19.03;10.80;;;;;;;23.44;100.00;100882.78;5074719;28;20534;-71
2023/06/21 07:28:04;;;;;;;15.50;9.27;;;;;;;23.46;100.00;100883.16;5074513;28;20540;-72
2023/06/21 07:30:32;;;;;;;20.93;9.83;;;;;;;23.53;100.00;100887.97;5074312;28;20480;-72
2023/06/21 07:32:59;;;;;;;22.87;10.57;;;;;;;23.58;100.00;100893.94;5074417;28;20476;-72
2023/06/21 07:35:25;;;;;;;14.73;8.40;;;;;;;23.70;100.00;100900.41;5074285;28;20485;-71
2023/06/21 07:37:52;;;;;;;15.30;7.97;;;;;;;23.67;100.00;100904.72;5074157;28;20441;-71
2023/06/21 07:40:18;;;;;;;13.87;7.20;;;;;;;23.57;100.00;100902.66;5074210;28;20906;-71
2023/06/21 07:42:45;;;;;;;14.47;8.10;;;;;;;23.53;100.00;100910.09;5073886;28;20499;-71
2023/06/21 07:45:12;;;;;;;13.30;7.70;;;;;;;23.65;100.00;100910.66;5074265;28;20544;-70
2023/06/21 07:47:41;;;;;;;12.63;6.67;;;;;;;23.71;100.00;100908.31;5073723;28;20867;-72
2023/06/21 07:50:08;;;;;;;12.70;7.20;;;;;;;23.73;100.00;100911.50;5073923;28;20464;-71
2023/06/21 07:52:36;;;;;;;15.17;7.87;;;;;;;23.84;100.00;100915.16;5074009;28;20465;-70
2023/06/21 07:55:05;;;;;;;13.83;7.60;;;;;;;23.83;100.00;100913.56;5073850;28;20572;-70
2023/06/21 07:57:32;;;;;;;13.67;6.77;;;;;;;23.82;100.00;100914.75;5073596;28;20480;-70
2023/06/21 08:00:05;;;;;;;14.43;8.30;;;;;;;23.84;100.00;100920.69;5073731;28;20469;-70
2023/06/21 08:02:32;;;;;;;14.73;8.00;;;;;;;23.90;100.00;100924.66;5073543;28;20927;-70
2023/06/21 08:04:59;;;;;;;14.10;7.77;;;;;;;24.06;100.00;100924.41;5073458;28;20532;-70
2023/06/21 08:07:26;;;;;;;14.07;8.20;;;;;;;24.16;100.00;100925.66;5073683;28;20447;-70
2023/06/21 08:09:53;;;;;;;15.47;7.70;;;;;;;24.24;100.00;100918.97;5073265;28;20468;-69
2023/06/21 08:12:19;;;;;;;16.30;8.00;;;;;;;24.41;100.00;100923.88;5073826;28;20514;-75
2023/06/21 08:14:46;;;;;;;14.43;8.13;;;;;;;24.46;100.00;100924.69;5073481;28;20584;-72
2023/06/21 08:17:12;;;;;;;16.13;7.93;;;;;;;24.59;99.90;100940.56;5073080;28;20445;-71
2023/06/21 08:19:39;;;;;;;14.43;6.83;;;;;;;24.65;94.81;100941.00;5072722;28;21031;-72
2023/06/21 08:22:08;;;;;;;12.67;7.20;;;;;;;24.80;94.97;100939.09;5073459;28;20426;-71
2023/06/21 08:24:34;;;;;;;14.67;6.57;;;;;;;24.94;94.16;100950.22;5073493;28;20472;-71
2023/06/21 08:27:01;;;;;;;15.23;7.83;;;;;;;25.00;93.02;100948.66;5073428;28;20437;-71
2023/06/21 08:29:28;;;;;;;11.13;5.70;;;;;;;25.09;94.77;100951.09;5073557;28;20466;-71
2023/06/21 08:31:54;;;;;;;13.77;5.90;;;;;;;25.28;94.96;100967.41;5073042;28;20954;-70
2023/06/21 08:34:21;;;;;;;12.73;7.40;;;;;;;25.33;92.72;100955.13;5073001;28;21037;-71
2023/06/21 08:36:48;;;;;;;12.53;6.93;;;;;;;25.23;90.52;100965.00;5073343;28;20532;-71
2023/06/21 08:39:16;;;;;;;12.10;6.77;;;;;;;25.12;92.71;100958.63;5073212;28;20591;-70
2023/06/21 08:41:43;;;;;;;13.67;7.00;;;;;;;24.97;92.46;100971.63;5073234;28;20449;-70
2023/06/21 08:44:10;;;;;;;12.93;6.70;;;;;;;25.05;93.62;100966.88;5073210;28;20433;-71
2023/06/21 08:46:38;;;;;;;11.80;6.17;;;;;;;25.07;94.06;100968.09;5073218;28;20451;-71
2023/06/21 08:49:06;;;;;;;13.83;6.83;;;;;;;25.15;93.85;100969.75;5072528;28;20473;-70
2023/06/21 08:51:35;;;;;;;14.30;6.30;;;;;;;25.21;92.49;100975.69;5073115;28;20539;-71
2023/06/21 08:54:04;;;;;;;10.80;5.70;;;;;;;25.22;91.29;100966.19;5073042;28;20540;-71
2023/06/21 08:56:38;;;;;;;15.07;5.60;;;;;;;25.25;91.33;100970.16;5073087;28;20482;-70
2023/06/21 08:59:08;;;;;;;15.97;6.27;;;;;;;25.28;91.29;100975.72;5073045;28;20552;-71
2023/06/21 09:01:40;;;;;;;12.37;6.83;;;;;;;25.28;90.78;100981.28;5073047;28;20469;-71
2023/06/21 09:04:13;;;;;;;11.70;6.17;;;;;;;25.42;89.14;100981.31;5073316;28;20520;-71
2023/06/21 09:06:43;;;;;;;13.73;6.90;;;;;;;25.58;89.97;100989.25;5072983;28;20467;-72
2023/06/21 09:09:11;;;;;;;9.07;5.30;;;;;;;25.64;87.22;100984.13;5072961;28;20548;-71
2023/06/21 09:11:40;;;;;;;11.40;6.17;;;;;;;25.67;88.02;100988.88;5073266;28;20495;-70
2023/06/21 09:14:07;;;;;;;19.93;7.07;;;;;;;25.78;87.57;100989.72;5072829;28;20445;-71
2023/06/21 09:16:34;;;;;;;10.17;5.90;;;;;;;25.80;85.97;100989.31;5072890;28;20532;-71
2023/06/21 09:19:01;;;;;;;11.87;6.30;;;;;;;25.78;84.86;100989.72;5072394;28;20849;-71
2023/06/21 09:21:28;;;;;;;13.80;5.07;;;;;;;25.93;86.38;100996.06;5072655;28;20532;-71
2023/06/21 09:23:55;;;;;;;12.37;6.80;;;;;;;26.05;84.42;100994.88;5072558;28;20488;-71
2023/06/21 09:26:22;;;;;;;11.60;6.40;;;;;;;26.20;83.68;101001.22;5072738;28;20529;-71
2023/06/21 09:28:51;;;;;;;9.90;5.20;;;;;;;26.29;84.36;101007.16;5072668;28;20477;-71
2023/06/21 09:31:17;;;;;;;12.60;6.30;;;;;;;26.37;84.04;101005.97;5072710;28;20529;-71
2023/06/21 09:33:47;;;;;;;11.30;5.47;;;;;;;26.37;82.85;101017.06;5072727;28;20814;-70
2023/06/21 09:36:14;;;;;;;9.70;5.50;;;;;;;26.27;83.56;101010.34;5072329;28;20999;-71
2023/06/21 09:38:41;;;;;;;10.97;4.73;;;;;;;26.28;85.31;101017.47;5072239;28;20946;-71
2023/06/21 09:41:08;;;;;;;10.90;4.87;;;;;;;26.37;82.85;101009.53;5072920;28;20437;-71
2023/06/21 09:43:41;;;;;;;10.73;5.87;;;;;;;26.50;80.04;101014.69;5072591;28;20436;-71
2023/06/21 09:46:11;;;;;;;11.30;5.20;;;;;;;26.57;82.79;101009.13;5072381;28;20414;-71
2023/06/21 09:48:39;;;;;;;10.47;4.07;;;;;;;26.66;83.07;101020.63;5072483;28;20474;-71
2023/06/21 09:51:08;;;;;;;8.33;4.57;;;;;;;26.72;81.53;101010.69;5072337;28;20455;-71
2023/06/21 09:53:36;;;;;;;9.87;5.07;;;;;;;26.69;80.31;101011.47;5072261;28;20449;-71
2023/06/21 09:56:03;;;;;;;9.07;4.20;;;;;;;26.71;79.86;101020.22;5072365;28;20991;-71
2023/06/21 09:58:33;;;;;;;12.13;6.10;;;;;;;26.82;80.27;101020.97;5072658;28;20555;-71
2023/06/21 10:00:59;;;;;;;12.33;6.10;;;;;;;27.00;79.80;101017.34;5074441;28;20429;-71
2023/06/21 10:03:27;;;;;;;11.27;5.37;;;;;;;26.96;76.96;101016.56;5075614;28;20488;-71
2023/06/21 10:05:55;;;;;;;10.27;5.43;;;;;;;26.89;77.58;101031.28;5075793;28;20944;-70
2023/06/21 10:08:27;;;;;;;7.77;4.57;;;;;;;26.71;78.51;101017.44;5075867;28;20465;-71
2023/06/21 10:10:54;;;;;;;9.20;4.50;;;;;;;27.01;73.92;101028.06;5075721;28;20441;-70
2023/06/21 10:13:28;;;;;;;8.87;4.70;;;;;;;26.91;72.22;101029.69;5075675;28;20445;-71
2023/06/21 10:15:56;;;;;;;9.60;4.70;;;;;;;26.83;75.01;101032.91;5075449;28;20480;-71
2023/06/21 10:18:23;;;;;;;11.20;3.90;;;;;;;26.84;73.90;101035.28;5075715;28;20445;-70
2023/06/21 10:20:54;;;;;;;9.50;4.40;;;;;;;27.04;72.83;101034.81;5075598;28;20464;-70
2023/06/21 10:23:22;;;;;;;11.50;5.70;;;;;;;27.13;72.87;101035.19;5075559;28;20452;-71
2023/06/21 10:25:52;;;;;;;8.87;4.13;;;;;;;27.02;74.04;101051.13;5075604;28;20465;-71
2023/06/21 10:28:20;;;;;;;12.60;5.53;;;;;;;27.01;74.14;101049.53;5075407;28;20524;-71
2023/06/21 10:30:51;;;;;;;9.47;4.57;;;;;;;26.95;73.27;101051.91;5075191;28;20430;-71
2023/06/21 10:33:19;;;;;;;11.37;5.27;;;;;;;26.94;73.33;101049.53;5075609;28;20445;-71
2023/06/21 10:35:48;;;;;;;9.13;4.23;;;;;;;26.85;74.53;101047.19;5075356;28;20473;-71
2023/06/21 10:38:25;;;;;;;6.97;3.13;;;;;;;27.04;74.65;101043.16;5075131;28;20430;-75
2023/06/21 10:40:55;;;;;;;9.30;5.00;;;;;;;27.11;73.59;101041.16;5075142;28;20420;-70
2023/06/21 10:43:22;;;;;;;7.87;3.97;;;;;;;27.38;72.34;101052.56;5075167;28;20450;-71
2023/06/21 10:45:50;;;;;;;8.60;4.20;;;;;;;27.51;72.44;101044.56;5075204;28;20433;-71
2023/06/21 10:48:18;;;;;;;9.03;4.47;;;;;;;27.71;71.93;101047.59;5075040;28;20528;-73
2023/06/21 10:50:46;;;;;;;8.10;4.17;;;;;;;27.82;68.60;101050.38;5075055;28;20441;-73
2023/06/21 10:53:17;;;;;;;10.13;4.70;;;;;;;27.75;68.09;101048.41;5075186;28;20452;-72
2023/06/21 10:55:46;;;;;;;8.20;4.07;;;;;;;27.40;70.38;101047.41;5074823;28;20596;-73
2023/06/21 10:58:14;;;;;;;7.60;3.70;;;;;;;27.46;71.33;101052.56;5075046;28;20475;-72
2023/06/21 11:00:44;;;;;;;7.63;3.80;;;;;;;27.58;69.87;101054.84;5074938;28;20525;-72
2023/06/21 11:03:13;;;;;;;8.10;3.40;;;;;;;27.67;71.44;101058.78;5074729;28;20507;-72
2023/06/21 11:05:40;;;;;;;9.00;3.93;;;;;;;27.67;69.52;101067.13;5074920;28;20449;-72
2023/06/21 11:08:09;;;;;;;8.87;3.97;;;;;;;27.52;71.40;101062.03;5074767;28;20451;-71
2023/06/21 11:10:39;;;;;;;8.17;4.00;;;;;;;27.44;71.51;101068.84;5074791;28;20540;-71
2023/06/21 11:13:08;;;;;;;7.00;3.50;;;;;;;27.36;73.25;101074.47;5074261;28;20512;-71
2023/06/21 11:15:35;;;;;;;9.27;4.50;;;;;;;27.28;70.48;101078.47;5074598;28;20481;-72